Weather History for KEFK - September, 2012

Change the Weather History Date:

Friday, September 14, 2012

  Actual Average Record
Temperature  
Mean Temperature 69 °F -  
Max Temperature 82 °F 69 °F 85 °F (1961)
Min Temperature 56 °F 47 °F 29 °F (1963)
Cooling Degree Days 4    
Growing Degree Days 19 (Base 50)    
Moisture  
Dew Point 53 °F    
Average Humidity 60    
Maximum Humidity 83    
Minimum Humidity 32    
Precipitation  
Precipitation 0.00 in - - ()
Sea Level Pressure  
Sea Level Pressure 30.14 in    
Wind  
Wind Speed 5 mph (South)    
Max Wind Speed 12 mph    
Max Gust Speed 26 mph    
Visibility 10 miles    
Events      
Averages and records for this station are not official NWS values.
T = Trace of Precipitation, MM = Missing Value Source: NWS Daily Summary

Daily Weather History Graph

Daily Weather History Graph

Search for Another Location

Airport or City:

Trip Planner

Search our weather history database for the weather conditions in past years. The results will help you decide how hot, cold, wet, or windy it might be!

Date:

Astronomy

Sep. 14, 2012 Rise Set
Actual Time 6:27 AM EDT 7:00 PM EDT
Civil Twilight 5:57 AM EDT 7:30 PM EDT
Nautical Twilight 5:22 AM EDT 8:04 PM EDT
Astronomical Twilight 4:46 AM EDT 8:40 PM EDT
Moon 4:45 AM EDT (9/14) 5:56 PM EDT (9/14)
Length of Visible Light 13h 32m
Length of Day
12h 33m
Waning Crescent, 3% of the Moon is Illuminated
Sep 14
Waning Crescent
Sep 15
New
Sep 22
First Quarter
Sep 29
Full
Oct 8
Last Quarter

Hourly Weather History & Observations

Time (EDT) Temp. Heat Index Dew Point Humidity Pressure Visibility Wind Dir Wind Speed Gust Speed Precip Events Conditions
12:15 AM 61.7 °F - 52.5 °F 72% 30.24 in 10.0 mi Calm Calm - N/A   Clear
12:35 AM 60.4 °F - 52.9 °F 76% 30.24 in 10.0 mi SW 4.6 mph - N/A   Clear
12:55 AM 59.5 °F - 52.3 °F 77% 30.24 in 10.0 mi SSW 3.5 mph - N/A   Clear
1:15 AM 59.4 °F - 52.9 °F 79% 30.24 in 10.0 mi SSW 3.5 mph - N/A   Clear
1:35 AM 59.0 °F - 52.9 °F 80% 30.24 in 10.0 mi SSW 5.8 mph - N/A   Clear
1:55 AM 59.0 °F - 52.9 °F 80% 30.24 in 10.0 mi SSW 4.6 mph - N/A   Clear
2:15 AM 58.3 °F - 52.7 °F 82% 30.24 in 10.0 mi SSW 4.6 mph - N/A   Clear
2:35 AM 57.7 °F - 52.2 °F 82% 30.23 in 10.0 mi South 4.6 mph - N/A   Clear
2:55 AM 57.2 °F - 51.8 °F 82% 30.23 in 10.0 mi SSW 4.6 mph - N/A   Clear
3:15 AM 57.7 °F - 52.5 °F 83% 30.23 in 10.0 mi South 4.6 mph - N/A   Clear
3:35 AM 57.6 °F - 52.0 °F 82% 30.23 in 10.0 mi South 5.8 mph - N/A   Clear
3:55 AM 57.7 °F - 52.0 °F 81% 30.23 in 10.0 mi SSW 6.9 mph - N/A   Clear
4:15 AM 57.6 °F - 51.8 °F 81% 30.23 in 10.0 mi SSW 5.8 mph - N/A   Clear
4:35 AM 57.6 °F - 52.0 °F 82% 30.23 in 10.0 mi SSW 5.8 mph - N/A   Clear
4:55 AM 57.9 °F - 51.8 °F 80% 30.22 in 10.0 mi SSW 4.6 mph - N/A   Clear
5:15 AM 57.2 °F - 51.8 °F 82% 30.22 in 10.0 mi SSW 5.8 mph - N/A   Clear
5:35 AM 57.4 °F - 51.6 °F 81% 30.22 in 10.0 mi SSW 4.6 mph - N/A   Clear
5:55 AM 58.1 °F - 52.0 °F 80% 30.22 in 10.0 mi SSW 3.5 mph - N/A   Clear
6:15 AM 57.7 °F - 51.4 °F 79% 30.22 in 10.0 mi SSW 4.6 mph - N/A   Clear
6:35 AM 56.3 °F - 50.9 °F 82% 30.22 in 10.0 mi SSW 4.6 mph - N/A   Clear
6:55 AM 57.0 °F - 51.8 °F 83% 30.22 in 10.0 mi SSW 4.6 mph - N/A   Clear
7:15 AM 57.6 °F - 51.8 °F 81% 30.23 in 10.0 mi SSW 5.8 mph - N/A   Clear
7:35 AM 58.1 °F - 52.7 °F 82% 30.22 in 7.0 mi SSW 4.6 mph - N/A   Clear
7:55 AM 59.0 °F - 53.4 °F 82% 30.22 in 10.0 mi SW 4.6 mph - N/A   Clear
8:15 AM 61.0 °F - 54.5 °F 79% 30.22 in 10.0 mi Calm Calm - N/A   Clear
8:35 AM 63.7 °F - 56.3 °F 77% 30.21 in 10.0 mi Calm Calm - N/A   Clear
8:55 AM 66.6 °F - 57.2 °F 72% 30.21 in 10.0 mi SSW 3.5 mph - N/A   Clear
9:15 AM 68.0 °F - 57.6 °F 69% 30.21 in 10.0 mi SSW 4.6 mph - N/A   Clear
9:35 AM 70.7 °F - 57.0 °F 62% 30.21 in 10.0 mi South 5.8 mph - N/A   Clear
9:55 AM 72.7 °F - 56.8 °F 57% 30.20 in 10.0 mi SSW 6.9 mph - N/A   Clear
10:15 AM 74.5 °F - 56.7 °F 54% 30.20 in 10.0 mi South 6.9 mph - N/A   Clear
10:35 AM 75.4 °F - 56.7 °F 52% 30.19 in 10.0 mi South 6.9 mph - N/A   Clear
10:55 AM 75.7 °F - 55.8 °F 50% 30.19 in 10.0 mi South 8.1 mph - N/A   Clear
11:15 AM 76.6 °F - 55.9 °F 49% 30.18 in 10.0 mi SSE 6.9 mph - N/A   Clear
11:35 AM 78.1 °F - 55.9 °F 46% 30.17 in 10.0 mi South 6.9 mph - N/A   Clear
11:55 AM 79.3 °F - 56.1 °F 45% 30.17 in 10.0 mi SE 9.2 mph - N/A   Clear
12:15 PM 79.7 °F - 55.2 °F 43% 30.16 in 10.0 mi SSE 8.1 mph - N/A   Clear
12:35 PM 80.1 °F 80.1 °F 55.0 °F 42% 30.16 in 10.0 mi SSE 8.1 mph - N/A   Clear
12:55 PM 80.6 °F 80.3 °F 53.8 °F 39% 30.15 in 10.0 mi SE 10.4 mph - N/A   Clear
1:15 PM 81.7 °F 81.1 °F 54.1 °F 39% 30.14 in 10.0 mi South 6.9 mph - N/A   Clear
1:35 PM 81.7 °F - 51.3 °F 35% 30.14 in 10.0 mi SE 8.1 mph - N/A   Clear
1:55 PM 81.9 °F - 50.4 °F 33% 30.13 in 10.0 mi SE 9.2 mph - N/A   Scattered Clouds
2:15 PM 82.4 °F - 50.7 °F 33% 30.12 in 10.0 mi SE 10.4 mph - N/A   Scattered Clouds
2:35 PM 82.4 °F - 49.6 °F 32% 30.11 in 10.0 mi SSE 10.4 mph - N/A   Scattered Clouds
2:55 PM 81.9 °F - 51.3 °F 34% 30.11 in 10.0 mi SSE 8.1 mph - N/A   Clear
3:15 PM 82.4 °F - 50.4 °F 33% 30.10 in 10.0 mi SSE 5.8 mph - N/A   Scattered Clouds
3:35 PM 81.7 °F - 50.9 °F 34% 30.10 in 10.0 mi SSE 8.1 mph - N/A   Scattered Clouds
3:55 PM 82.4 °F 81.3 °F 53.1 °F 36% 30.09 in 10.0 mi SSE 5.8 mph - N/A   Clear
4:15 PM 81.7 °F - 51.6 °F 35% 30.08 in 10.0 mi SSE 10.4 mph - N/A   Scattered Clouds
4:35 PM 81.0 °F - 52.7 °F 37% 30.08 in 10.0 mi SSE 5.8 mph - N/A   Scattered Clouds
4:55 PM 80.4 °F - 52.9 °F 38% 30.07 in 10.0 mi SSE 5.8 mph - N/A   Clear
5:15 PM 79.3 °F - 55.9 °F 44% 30.06 in 10.0 mi SSE 5.8 mph - N/A   Clear
5:35 PM 77.7 °F - 56.8 °F 48% 30.05 in 10.0 mi SSE 4.6 mph - N/A   Clear
5:55 PM 76.3 °F - 56.3 °F 50% 30.05 in 10.0 mi SSE 6.9 mph - N/A   Clear
6:15 PM 75.6 °F - 55.8 °F 50% 30.05 in 10.0 mi SSE 6.9 mph - N/A   Clear
6:35 PM 74.1 °F - 55.6 °F 52% 30.04 in 10.0 mi SSE 6.9 mph - N/A   Clear
6:55 PM 72.5 °F - 55.4 °F 55% 30.03 in 10.0 mi SE 6.9 mph - N/A   Clear
7:15 PM 72.0 °F - 55.0 °F 55% 30.03 in 10.0 mi SSE 6.9 mph - N/A   Clear
7:35 PM 71.6 °F - 54.1 °F 54% 30.02 in 10.0 mi SSE 8.1 mph - N/A   Clear
7:55 PM 72.3 °F - 52.9 °F 50% 30.01 in 10.0 mi SSE 10.4 mph - N/A   Clear
8:15 PM 72.7 °F - 52.0 °F 48% 30.01 in 10.0 mi South 6.9 mph - N/A   Clear
8:35 PM 71.1 °F - 53.1 °F 53% 30.01 in 10.0 mi SSE 8.1 mph - N/A   Clear
8:55 PM 70.5 °F - 53.1 °F 54% 30.01 in 10.0 mi SSE 6.9 mph - N/A   Clear
9:15 PM 70.9 °F - 52.7 °F 53% 30.00 in 10.0 mi SE 9.2 mph - N/A   Clear
9:35 PM 70.2 °F - 52.7 °F 54% 30.01 in 10.0 mi Calm Calm - N/A   Clear
9:55 PM 69.1 °F - 53.1 °F 57% 30.01 in 10.0 mi Calm Calm - N/A   Clear
10:15 PM 68.4 °F - 54.1 °F 60% 30.02 in 10.0 mi SSE 5.8 mph - N/A   Clear
10:35 PM 66.2 °F - 54.5 °F 66% 30.02 in 10.0 mi South 3.5 mph - N/A   Clear
10:55 PM 67.3 °F - 54.3 °F 63% 30.02 in 10.0 mi South 3.5 mph - N/A   Clear
11:15 PM 66.9 °F - 54.9 °F 65% 30.03 in 10.0 mi WNW 6.9 mph - N/A   Scattered Clouds
11:35 PM 67.1 °F - 54.9 °F 65% 30.05 in 10.0 mi WNW 10.4 mph 17.3 mph N/A   Mostly Cloudy
11:55 PM 65.8 °F - 52.5 °F 62% 30.04 in 10.0 mi WNW 11.5 mph 26.5 mph N/A   Mostly Cloudy